| time (UTC) | temp F | wind direction | speed knots | gust knots | rain 1hr in | rain 24hr in | rain mn in | humidity % | barometer mb |
| 20260506044604 | 54 | 64 | 0.0 | 1.7 | 0.00 | 0.32 | 0.18 | 98 | 1009.7 |
| 20260506044105 | 54 | 99 | 0.0 | 1.7 | 0.00 | 0.34 | 0.18 | 98 | 1009.9 |
| 20260506043604 | 54 | 99 | 0.0 | 1.7 | 0.00 | 0.36 | 0.18 | 98 | 1010.0 |
| 20260506043104 | 54 | 99 | 0.0 | 1.7 | 0.00 | 0.38 | 0.18 | 98 | 1010.0 |
| 20260506042605 | 54 | 99 | 0.0 | 1.7 | 0.00 | 0.40 | 0.18 | 98 | 1009.9 |
| 20260506042104 | 53 | 54 | 0.0 | 1.7 | 0.00 | 0.43 | 0.18 | 98 | 1009.9 |
| 20260506041604 | 53 | 315 | 0.0 | 0.9 | 0.00 | 0.45 | 0.18 | 98 | 1009.9 |
| 20260506041104 | 53 | 315 | 0.9 | 0.0 | 0.00 | 0.47 | 0.18 | 98 | 1010.0 |
| 20260506040603 | 53 | 315 | 0.9 | 1.7 | 0.00 | 0.49 | 0.18 | 98 | 1010.0 |
| 20260506035604 | 54 | 315 | 0.0 | 1.7 | 0.01 | 0.50 | 0.18 | 98 | 1010.0 |
| 20260506035103 | 54 | 315 | 1.7 | 1.7 | 0.01 | 0.52 | 0.18 | 98 | 1010.0 |
| 20260506034604 | 54 | 315 | 1.7 | 1.7 | 0.01 | 0.54 | 0.18 | 98 | 1010.0 |
| 20260506033606 | 54 | 313 | 1.7 | 2.6 | 0.02 | 0.56 | 0.18 | 98 | 1010.2 |
| 20260506033104 | 54 | 339 | 0.9 | 4.3 | 0.03 | 0.57 | 0.18 | 98 | 1010.2 |
| 20260506032103 | 54 | 339 | 0.9 | 1.7 | 0.07 | 0.59 | 0.18 | 98 | 1010.1 |
| 20260506031604 | 54 | 339 | 0.9 | 1.7 | 0.08 | 0.59 | 0.18 | 98 | 1010.1 |
| 20260506031107 | 54 | 340 | 0.9 | 2.6 | 0.10 | 0.61 | 0.18 | 98 | 1010.3 |
| 20260506030604 | 53 | 61 | 0.9 | 2.6 | 0.13 | 0.61 | 0.18 | 98 | 1010.5 |
| 20260506030104 | 53 | 61 | 1.7 | 2.6 | 0.14 | 0.61 | 0.18 | 98 | 1010.5 |
| 20260506025104 | 53 | 126 | 2.6 | 1.7 | 0.15 | 0.61 | 0.17 | 98 | 1010.7 |
| 20260506024605 | 53 | 126 | 2.6 | 4.3 | 0.15 | 0.62 | 0.17 | 98 | 1010.7 |
| 20260506024104 | 53 | 128 | 2.6 | 4.3 | 0.14 | 0.61 | 0.16 | 98 | 1011.1 |
| 20260506023604 | 53 | 128 | 1.7 | 4.3 | 0.14 | 0.61 | 0.16 | 98 | 1011.4 |
| 20260506023104 | 53 | 120 | 1.7 | 4.3 | 0.13 | 0.59 | 0.15 | 98 | 1011.4 |
| 20260506022604 | 53 | 128 | 1.7 | 4.3 | 0.11 | 0.58 | 0.13 | 98 | 1011.6 |
| 20260506021604 | 54 | 125 | 1.7 | 2.6 | 0.08 | 0.57 | 0.10 | 98 | 1011.7 |
| 20260506021104 | 54 | 136 | 0.9 | 5.2 | 0.08 | 0.57 | 0.08 | 98 | 1011.8 |
| 20260506020606 | 54 | 139 | 0.0 | 5.2 | 0.05 | 0.54 | 0.05 | 98 | 1011.9 |
| 20260506020104 | 54 | 107 | 0.0 | 0.0 | 0.04 | 0.54 | 0.04 | 98 | 1011.9 |
| 20260506015604 | 54 | 126 | 0.0 | 0.0 | 0.02 | 0.52 | 0.02 | 98 | 1011.8 |
| 20260506015104 | 54 | 126 | 0.0 | 0.0 | 0.02 | 0.53 | 0.02 | 98 | 1011.8 |
| 20260506014603 | 53 | 126 | 0.0 | 0.0 | 0.02 | 0.53 | 0.02 | 98 | 1011.8 |
| 20260506014104 | 53 | 126 | 0.0 | 0.0 | 0.02 | 0.53 | 0.02 | 98 | 1011.8 |
| 20260506013103 | 53 | 126 | 0.0 | 0.0 | 0.02 | 0.55 | 0.02 | 97 | 1011.8 |
| 20260506012604 | 53 | 126 | 0.0 | 0.0 | 0.02 | 0.55 | 0.02 | 98 | 1011.9 |
| 20260506011605 | 53 | 126 | 0.0 | 0.0 | 0.02 | 0.56 | 0.02 | 98 | 1012.0 |
| 20260506010104 | 53 | 126 | 0.0 | 0.0 | 0.00 | 0.56 | 0.00 | 98 | 1012.2 |
| 20260506005604 | 53 | 126 | 0.0 | 0.0 | 0.00 | 0.56 | 0.00 | 98 | 1012.1 |
| 20260506005104 | 53 | 126 | 0.0 | 0.0 | 0.00 | 0.56 | 0.00 | 98 | 1012.1 |
| 20260506004604 | 53 | 126 | 0.0 | 0.0 | 0.00 | 0.57 | 0.00 | 98 | 1012.1 |
| 20260506004104 | 53 | 126 | 0.0 | 0.0 | 0.00 | 0.57 | 0.00 | 98 | 1012.2 |
| 20260506003604 | 53 | 126 | 0.0 | 0.0 | 0.00 | 0.57 | 0.00 | 98 | 1012.2 |
| 20260506003104 | 53 | 126 | 0.0 | 0.0 | 0.00 | 0.57 | 0.00 | 98 | 1012.2 |
| 20260506002104 | 53 | 126 | 0.0 | 0.0 | 0.00 | 0.57 | 0.00 | 97 | 1012.4 |
| 20260506001604 | 53 | 126 | 0.0 | 0.0 | 0.00 | 0.57 | 0.00 | 97 | 1012.4 |
| 20260506001104 | 53 | 126 | 0.0 | 0.0 | 0.00 | 0.57 | 0.00 | 97 | 1012.6 |
| 20260506000606 | 53 | 126 | 0.0 | 0.0 | 0.00 | 0.57 | 0.00 | 97 | 1012.7 |
| 20260506000106 | 52 | 126 | 0.0 | 0.0 | 0.00 | 0.57 | 0.00 | 97 | 1012.7 |
| 20260505235104 | 52 | 126 | 0.0 | 0.0 | 0.00 | 0.57 | 0.00 | 97 | 1012.7 |
| 20260505234605 | 52 | 126 | 0.0 | 0.0 | 0.00 | 0.57 | 0.00 | 96 | 1012.7 |
| 20260505234104 | 53 | 126 | 0.0 | 0.0 | 0.00 | 0.57 | 0.00 | 96 | 1012.7 |
| 20260505233604 | 53 | 126 | 0.0 | 0.0 | 0.00 | 0.57 | 0.00 | 96 | 1012.7 |
| 20260505233105 | 53 | 126 | 0.0 | 0.0 | 0.00 | 0.57 | 0.00 | 96 | 1012.7 |
| 20260505232604 | 53 | 125 | 0.0 | 0.0 | 0.00 | 0.57 | 0.00 | 96 | 1012.8 |
| 20260505232104 | 53 | 125 | 0.0 | 0.0 | 0.00 | 0.57 | 0.00 | 96 | 1012.8 |
| 20260505231604 | 53 | 125 | 0.0 | 0.0 | 0.00 | 0.57 | 0.00 | 96 | 1012.8 |
| 20260505231105 | 53 | 125 | 0.0 | 0.0 | 0.00 | 0.57 | 0.00 | 96 | 1012.9 |
| 20260505230605 | 53 | 125 | 0.0 | 0.0 | 0.00 | 0.57 | 0.00 | 96 | 1012.9 |
| 20260505225603 | 54 | 125 | 0.0 | 0.0 | 0.00 | 0.57 | 0.00 | 96 | 1013.0 |
| 20260505225104 | 54 | 125 | 0.0 | 0.0 | 0.00 | 0.57 | 0.00 | 96 | 1013.1 |
| 20260505224104 | 54 | 125 | 0.0 | 0.0 | 0.00 | 0.57 | 0.00 | 96 | 1013.2 |
| 20260505223604 | 54 | 125 | 0.0 | 0.0 | 0.00 | 0.57 | 0.00 | 95 | 1013.2 |
| 20260505222604 | 54 | 125 | 0.0 | 0.0 | 0.00 | 0.57 | 0.00 | 95 | 1013.2 |
| 20260505222104 | 55 | 125 | 0.0 | 0.0 | 0.00 | 0.57 | 0.00 | 95 | 1013.2 |
| 20260505221103 | 55 | 125 | 0.0 | 0.0 | 0.00 | 0.57 | 0.00 | 95 | 1013.3 |
| 20260505220105 | 55 | 125 | 0.0 | 0.0 | 0.00 | 0.57 | 0.00 | 96 | 1013.4 |
| 20260505215107 | 55 | 125 | 0.0 | 0.0 | 0.00 | 0.57 | 0.57 | 95 | 1013.5 |
| 20260505214604 | 55 | 125 | 0.0 | 0.0 | 0.00 | 0.57 | 0.57 | 95 | 1013.5 |
| 20260505213604 | 55 | 125 | 0.0 | 0.0 | 0.00 | 0.57 | 0.57 | 95 | 1013.6 |
| 20260505213104 | 55 | 125 | 0.0 | 0.0 | 0.00 | 0.57 | 0.57 | 95 | 1013.6 |
| 20260505212104 | 55 | 125 | 0.0 | 0.0 | 0.00 | 0.57 | 0.57 | 95 | 1013.6 |
| 20260505211604 | 55 | 125 | 0.0 | 0.0 | 0.00 | 0.57 | 0.57 | 95 | 1013.6 |
| 20260505205103 | 55 | 125 | 0.0 | 0.0 | 0.00 | 0.57 | 0.57 | 94 | 1013.8 |
| 20260505204604 | 55 | 125 | 0.0 | 0.0 | 0.00 | 0.57 | 0.57 | 94 | 1013.8 |
| 20260505203604 | 56 | 125 | 0.0 | 0.0 | 0.00 | 0.57 | 0.57 | 93 | 1013.8 |
| 20260505203104 | 56 | 125 | 0.0 | 0.0 | 0.00 | 0.57 | 0.57 | 93 | 1013.8 |
| 20260505202604 | 56 | 125 | 0.0 | 0.0 | 0.00 | 0.57 | 0.57 | 92 | 1013.7 |
| 20260505202104 | 56 | 125 | 0.0 | 0.0 | 0.00 | 0.57 | 0.57 | 92 | 1013.7 |
| 20260505201105 | 56 | 125 | 0.0 | 0.0 | 0.00 | 0.57 | 0.57 | 92 | 1013.8 |
| 20260505200104 | 56 | 125 | 0.0 | 0.0 | 0.00 | 0.57 | 0.57 | 92 | 1013.9 |
| 20260505195111 | 57 | 125 | 0.0 | 0.0 | 0.00 | 0.57 | 0.57 | 91 | 1013.7 |
| 20260505194604 | 57 | 125 | 0.0 | 0.0 | 0.00 | 0.57 | 0.57 | 91 | 1013.7 |
| 20260505193619 | 57 | 125 | 0.0 | 0.0 | 0.00 | 0.57 | 0.57 | 91 | 1013.7 |
| 20260505191604 | 57 | 125 | 0.0 | 0.0 | 0.00 | 0.57 | 0.57 | 91 | 1013.6 |
| 20260505191107 | 57 | 125 | 0.0 | 0.0 | 0.00 | 0.57 | 0.57 | 90 | 1013.6 |
| 20260505190603 | 57 | 125 | 0.0 | 0.0 | 0.01 | 0.57 | 0.57 | 89 | 1013.6 |
| 20260505190104 | 58 | 125 | 0.0 | 0.0 | 0.01 | 0.57 | 0.57 | 90 | 1013.6 |
| 20260505185607 | 58 | 125 | 0.0 | 0.0 | 0.01 | 0.57 | 0.57 | 90 | 1013.6 |
| 20260505185104 | 58 | 125 | 0.0 | 0.0 | 0.01 | 0.57 | 0.57 | 90 | 1013.6 |
| 20260505184604 | 58 | 125 | 0.0 | 0.0 | 0.01 | 0.57 | 0.57 | 90 | 1013.6 |
| 20260505183604 | 58 | 125 | 0.0 | 0.0 | 0.01 | 0.57 | 0.57 | 90 | 1013.5 |
| 20260505183104 | 58 | 125 | 0.0 | 0.0 | 0.01 | 0.57 | 0.57 | 89 | 1013.5 |
| 20260505181605 | 58 | 125 | 0.0 | 0.0 | 0.01 | 0.57 | 0.57 | 89 | 1013.4 |
| 20260505181108 | 58 | 125 | 0.0 | 0.0 | 0.01 | 0.57 | 0.57 | 88 | 1013.4 |
| 20260505180604 | 58 | 125 | 0.0 | 0.0 | 0.00 | 0.56 | 0.56 | 88 | 1013.4 |
| 20260505180104 | 58 | 125 | 0.0 | 0.0 | 0.00 | 0.56 | 0.56 | 87 | 1013.4 |
| 20260505175607 | 58 | 125 | 0.0 | 0.0 | 0.00 | 0.56 | 0.56 | 87 | 1013.3 |
| 20260505175110 | 58 | 125 | 0.0 | 0.0 | 0.00 | 0.56 | 0.56 | 87 | 1013.3 |
| 20260505174604 | 58 | 125 | 0.0 | 0.0 | 0.00 | 0.56 | 0.56 | 87 | 1013.3 |
| 20260505174104 | 58 | 125 | 0.0 | 0.0 | 0.00 | 0.56 | 0.56 | 86 | 1013.3 |
| 20260505173604 | 58 | 125 | 0.0 | 0.0 | 0.00 | 0.56 | 0.56 | 86 | 1013.3 |
| 20260505173104 | 58 | 125 | 1.7 | 0.0 | 0.00 | 0.56 | 0.56 | 86 | 1013.3 |
| 20260505172603 | 58 | 125 | 1.7 | 1.7 | 0.00 | 0.56 | 0.56 | 86 | 1013.4 |
| 20260505171604 | 59 | 125 | 1.7 | 1.7 | 0.00 | 0.56 | 0.56 | 86 | 1013.4 |
| 20260505171105 | 59 | 123 | 1.7 | 2.6 | 0.00 | 0.56 | 0.56 | 86 | 1013.4 |
| 20260505170604 | 59 | 123 | 1.7 | 4.3 | 0.00 | 0.56 | 0.56 | 86 | 1013.4 |
| 20260505170104 | 59 | 125 | 1.7 | 2.6 | 0.00 | 0.56 | 0.56 | 85 | 1013.4 |
| 20260505165611 | 59 | 125 | 1.7 | 2.6 | 0.00 | 0.56 | 0.56 | 85 | 1013.5 |
| 20260505165103 | 59 | 124 | 1.7 | 2.6 | 0.00 | 0.56 | 0.56 | 85 | 1013.5 |
| 20260505164604 | 59 | 124 | 1.7 | 2.6 | 0.00 | 0.56 | 0.56 | 84 | 1013.5 |
| 20260505164104 | 59 | 124 | 1.7 | 1.7 | 0.00 | 0.56 | 0.56 | 84 | 1013.5 |
| 20260505163604 | 59 | 124 | 1.7 | 4.3 | 0.00 | 0.56 | 0.56 | 85 | 1013.5 |
| 20260505162604 | 60 | 132 | 1.7 | 1.7 | 0.00 | 0.56 | 0.56 | 84 | 1013.5 |
| 20260505162105 | 60 | 132 | 1.7 | 1.7 | 0.00 | 0.56 | 0.56 | 83 | 1013.5 |
| 20260505161604 | 60 | 132 | 1.7 | 2.6 | 0.00 | 0.56 | 0.56 | 83 | 1013.5 |
| 20260505161106 | 60 | 137 | 1.7 | 2.6 | 0.00 | 0.56 | 0.56 | 83 | 1013.5 |
| 20260505160606 | 60 | 126 | 1.7 | 2.6 | 0.00 | 0.56 | 0.56 | 83 | 1013.5 |
| 20260505160104 | 60 | 126 | 1.7 | 2.6 | 0.00 | 0.56 | 0.56 | 82 | 1013.5 |
| 20260505152609 | 60 | 130 | 1.7 | 2.6 | 0.00 | 0.56 | 0.56 | 82 | 1013.8 |
| 20260505151604 | 60 | 134 | 1.7 | 2.6 | 0.00 | 0.56 | 0.56 | 82 | 1013.8 |
| 20260505151104 | 60 | 130 | 1.7 | 2.6 | 0.00 | 0.56 | 0.56 | 82 | 1013.8 |
| 20260505150604 | 60 | 128 | 1.7 | 4.3 | 0.00 | 0.56 | 0.56 | 81 | 1013.8 |
| 20260505140607 | 61 | 19 | 1.7 | 1.7 | 0.00 | 0.56 | 0.56 | 81 | 1014.0 |
| 20260505140105 | 61 | 313 | 0.9 | 4.3 | 0.00 | 0.56 | 0.56 | 81 | 1014.0 |
| 20260505130105 | 59 | 101 | 1.7 | 4.3 | 0.00 | 0.56 | 0.56 | 85 | 1014.4 |
| 20260505124604 | 59 | 133 | 0.9 | 5.2 | 0.00 | 0.56 | 0.56 | 84 | 1014.5 |
| 20260505124104 | 59 | 30 | 1.7 | 2.6 | 0.00 | 0.56 | 0.56 | 85 | 1014.5 |
| 20260505123604 | 58 | 138 | 1.7 | 2.6 | 0.00 | 0.56 | 0.56 | 87 | 1014.5 |
| 20260505123104 | 58 | 141 | 1.7 | 5.2 | 0.00 | 0.56 | 0.56 | 88 | 1014.5 |
| 20260505122604 | 57 | 116 | 1.7 | 4.3 | 0.00 | 0.56 | 0.56 | 90 | 1014.6 |
| 20260505121604 | 56 | 118 | 1.7 | 4.3 | 0.00 | 0.56 | 0.56 | 89 | 1014.7 |
| 20260505121104 | 56 | 126 | 1.7 | 2.6 | 0.00 | 0.56 | 0.56 | 90 | 1014.6 |
| 20260505120605 | 56 | 135 | 1.7 | 2.6 | 0.00 | 0.56 | 0.56 | 89 | 1014.6 |
| 20260505115104 | 56 | 138 | 0.9 | 2.6 | 0.00 | 0.56 | 0.56 | 90 | 1014.7 |
| 20260505114605 | 56 | 246 | 0.9 | 1.7 | 0.00 | 0.56 | 0.56 | 91 | 1014.7 |
| 20260505114106 | 56 | 246 | 0.9 | 2.6 | 0.00 | 0.56 | 0.56 | 92 | 1014.7 |
| 20260505113104 | 56 | 294 | 0.9 | 1.7 | 0.00 | 0.56 | 0.56 | 93 | 1014.7 |
| 20260505112119 | 56 | 294 | 0.9 | 1.7 | 0.00 | 0.56 | 0.56 | 94 | 1014.8 |
| 20260505111604 | 55 | 294 | 0.9 | 1.7 | 0.00 | 0.56 | 0.56 | 95 | 1014.8 |
| 20260505111104 | 55 | 345 | 1.7 | 1.7 | 0.00 | 0.56 | 0.56 | 95 | 1014.9 |
| 20260505110606 | 55 | 355 | 1.7 | 1.7 | 0.00 | 0.56 | 0.56 | 95 | 1014.9 |
| 20260505110106 | 55 | 111 | 0.9 | 2.6 | 0.00 | 0.56 | 0.56 | 95 | 1014.9 |
| 20260505101607 | 54 | 317 | 1.7 | 4.3 | 0.00 | 0.56 | 0.56 | 96 | 1015.0 |
| 20260505101104 | 54 | 143 | 1.7 | 4.3 | 0.00 | 0.56 | 0.56 | 96 | 1014.9 |
| 20260505100611 | 54 | 268 | 1.7 | 2.6 | 0.00 | 0.56 | 0.56 | 96 | 1014.9 |
| 20260505100104 | 54 | 323 | 0.9 | 4.3 | 0.00 | 0.56 | 0.56 | 96 | 1014.9 |
| 20260505095106 | 54 | 280 | 0.9 | 2.6 | 0.00 | 0.56 | 0.56 | 96 | 1014.8 |
| 20260505094604 | 54 | 337 | 0.9 | 2.6 | 0.00 | 0.56 | 0.56 | 96 | 1014.8 |
| 20260505094105 | 54 | 335 | 0.9 | 1.7 | 0.00 | 0.56 | 0.56 | 96 | 1014.9 |
| 20260505093104 | 53 | 213 | 1.7 | 2.6 | 0.00 | 0.56 | 0.56 | 96 | 1014.9 |
| 20260505092605 | 53 | 224 | 1.7 | 2.6 | 0.00 | 0.56 | 0.56 | 96 | 1014.8 |
| 20260505092104 | 53 | 283 | 0.9 | 2.6 | 0.00 | 0.56 | 0.56 | 96 | 1014.8 |
| 20260505091604 | 53 | 264 | 0.9 | 4.3 | 0.00 | 0.56 | 0.56 | 96 | 1014.8 |
| 20260505090604 | 53 | 335 | 1.7 | 2.6 | 0.00 | 0.56 | 0.56 | 96 | 1014.8 |
| 20260505090105 | 53 | 284 | 0.9 | 2.6 | 0.00 | 0.56 | 0.56 | 96 | 1014.8 |
| 20260505085605 | 53 | 246 | 0.9 | 1.7 | 0.00 | 0.56 | 0.56 | 97 | 1014.8 |
| 20260505085105 | 53 | 300 | 0.9 | 1.7 | 0.00 | 0.56 | 0.56 | 97 | 1014.8 |
| 20260505084604 | 53 | 301 | 0.9 | 4.3 | 0.00 | 0.56 | 0.56 | 96 | 1014.8 |
| 20260505084104 | 53 | 290 | 0.9 | 1.7 | 0.00 | 0.56 | 0.56 | 97 | 1014.9 |
| 20260505083105 | 53 | 288 | 0.9 | 2.6 | 0.00 | 0.56 | 0.56 | 97 | 1015.0 |
| 20260505082605 | 53 | 198 | 0.9 | 4.3 | 0.00 | 0.56 | 0.56 | 97 | 1014.8 |
| 20260505082104 | 53 | 342 | 0.9 | 1.7 | 0.00 | 0.56 | 0.56 | 97 | 1014.7 |
| 20260505081603 | 53 | 342 | 0.0 | 1.7 | 0.00 | 0.56 | 0.56 | 97 | 1014.7 |
| 20260505081104 | 53 | 342 | 0.0 | 1.7 | 0.00 | 0.56 | 0.56 | 97 | 1014.7 |
| 20260505080605 | 53 | 342 | 0.0 | 0.0 | 0.00 | 0.56 | 0.56 | 97 | 1014.7 |
| 20260505080105 | 53 | 342 | 0.9 | 0.0 | 0.00 | 0.56 | 0.56 | 97 | 1014.7 |
| 20260505075604 | 53 | 342 | 0.9 | 1.7 | 0.00 | 0.56 | 0.56 | 97 | 1014.6 |
| 20260505075104 | 53 | 342 | 0.9 | 1.7 | 0.00 | 0.56 | 0.56 | 97 | 1014.6 |
| 20260505074607 | 53 | 342 | 0.9 | 1.7 | 0.00 | 0.56 | 0.56 | 97 | 1014.6 |
| 20260505074103 | 53 | 342 | 1.7 | 1.7 | 0.00 | 0.56 | 0.56 | 97 | 1014.6 |
| 20260505073604 | 53 | 342 | 1.7 | 1.7 | 0.00 | 0.56 | 0.56 | 97 | 1014.6 |
| 20260505073105 | 53 | 342 | 1.7 | 1.7 | 0.00 | 0.56 | 0.56 | 97 | 1014.6 |
| 20260505072605 | 53 | 343 | 1.7 | 1.7 | 0.00 | 0.56 | 0.56 | 97 | 1014.6 |
| 20260505072105 | 52 | 343 | 0.9 | 2.6 | 0.00 | 0.56 | 0.56 | 97 | 1014.6 |
| 20260505071614 | 53 | 314 | 0.9 | 2.6 | 0.00 | 0.56 | 0.56 | 97 | 1014.6 |
| 20260505071104 | 52 | 315 | 1.7 | 0.0 | 0.00 | 0.56 | 0.56 | 97 | 1014.7 |
| 20260505070108 | 52 | 315 | 1.7 | 2.6 | 0.00 | 0.56 | 0.56 | 96 | 1014.8 |
| 20260505065603 | 52 | 315 | 1.7 | 2.6 | 0.00 | 0.56 | 0.56 | 96 | 1014.7 |
| 20260505065104 | 52 | 315 | 1.7 | 2.6 | 0.00 | 0.56 | 0.56 | 96 | 1014.6 |
| 20260505064604 | 52 | 332 | 1.7 | 5.2 | 0.00 | 0.56 | 0.56 | 96 | 1014.6 |
| 20260505063106 | 52 | 340 | 0.9 | 4.3 | 0.00 | 0.56 | 0.56 | 96 | 1014.6 |
| 20260505062606 | 52 | 337 | 0.9 | 2.6 | 0.01 | 0.56 | 0.56 | 96 | 1014.5 |
| 20260505061604 | 52 | 52 | 0.0 | 1.7 | 0.03 | 0.56 | 0.56 | 96 | 1014.5 |
| 20260505061104 | 53 | 53 | 0.0 | 1.7 | 0.05 | 0.56 | 0.56 | 96 | 1014.4 |
| 20260505060104 | 53 | 56 | 0.9 | 1.7 | 0.08 | 0.56 | 0.56 | 96 | 1014.3 |
| 20260505055104 | 53 | 0 | 0.9 | 1.7 | 0.11 | 0.56 | 0.56 | 96 | 1014.5 |
| 20260505054604 | 53 | 0 | 0.0 | 1.7 | 0.13 | 0.56 | 0.56 | 96 | 1014.5 |
| 20260505053604 | 53 | 0 | 0.9 | 1.7 | 0.17 | 0.56 | 0.56 | 96 | 1014.1 |
| 20260505053104 | 53 | 0 | 0.9 | 1.7 | 0.19 | 0.56 | 0.56 | 96 | 1014.1 |
| 20260505052603 | 53 | 0 | 0.9 | 2.6 | 0.20 | 0.56 | 0.56 | 96 | 1014.2 |
| 20260505051607 | 53 | 303 | 1.7 | 2.6 | 0.23 | 0.54 | 0.54 | 96 | 1014.3 |
| 20260505051105 | 53 | 296 | 1.7 | 5.2 | 0.23 | 0.52 | 0.52 | 96 | 1014.4 |
| 20260505050604 | 53 | 302 | 1.7 | 5.2 | 0.23 | 0.49 | 0.49 | 96 | 1014.4 |
| 20260505050105 | 53 | 317 | 1.7 | 5.2 | 0.22 | 0.48 | 0.48 | 96 | 1014.4 |